createdAt,value
2019-04-21T00:02:23.885Z,4.57
2019-04-21T00:04:57.998Z,5.15
2019-04-21T00:07:37.779Z,3.90
2019-04-21T00:10:06.414Z,4.40
2019-04-21T00:12:34.477Z,4.50
2019-04-21T00:14:59.437Z,4.63
2019-04-21T00:17:19.692Z,4.60
2019-04-21T00:19:55.472Z,4.60
2019-04-21T00:22:34.477Z,5.20
2019-04-21T00:25:07.677Z,4.40
2019-04-21T00:27:41.353Z,4.90
2019-04-21T00:30:10.957Z,4.27
2019-04-21T00:32:31.745Z,4.00
2019-04-21T00:35:02.527Z,4.70
2019-04-21T00:37:42.579Z,4.87
2019-04-21T00:40:17.854Z,4.80
2019-04-21T00:42:43.571Z,4.33
2019-04-21T00:45:08.138Z,4.33
2019-04-21T00:47:38.832Z,4.13
2019-04-21T00:50:12.792Z,4.90
2019-04-21T00:53:06.778Z,4.20
2019-04-21T00:55:51.994Z,4.00
2019-04-21T00:58:33.102Z,4.43
2019-04-21T01:00:51.296Z,4.07
2019-04-21T01:03:25.832Z,4.30
2019-04-21T01:05:56.120Z,4.17
2019-04-21T01:08:21.498Z,4.17
2019-04-21T01:10:43.960Z,4.40
2019-04-21T01:13:27.753Z,3.97
2019-04-21T01:15:53.355Z,4.27
2019-04-21T01:18:20.745Z,4.20
2019-04-21T01:20:31.188Z,4.47
2019-04-21T01:23:00.258Z,4.50
2019-04-21T01:25:37.157Z,4.40
2019-04-21T01:28:13.499Z,4.60
2019-04-21T01:30:50.357Z,4.67
2019-04-21T01:33:21.373Z,4.53
2019-04-21T01:35:48.456Z,4.13
2019-04-21T01:38:24.514Z,4.87
2019-04-21T01:40:49.250Z,3.93
2019-04-21T01:43:21.619Z,5.13
2019-04-21T01:45:48.651Z,4.00
2019-04-21T01:48:15.845Z,3.87
2019-04-21T01:50:47.009Z,4.70
2019-04-21T01:53:34.794Z,4.27
2019-04-21T01:56:08.013Z,5.00
2019-04-21T01:58:29.213Z,4.70
2019-04-21T02:01:05.749Z,4.83
2019-04-21T02:08:36.481Z,4.73
2019-04-21T02:13:48.970Z,4.63
2019-04-21T02:16:11.405Z,4.83
2019-04-21T02:18:39.562Z,4.43
2019-04-21T02:21:01.716Z,4.60
2019-04-21T02:23:46.359Z,4.47
2019-04-21T02:26:16.414Z,4.60
2019-04-21T02:28:49.842Z,4.97
2019-04-21T02:36:32.603Z,5.33
2019-04-21T02:41:24.941Z,5.20
2019-04-21T02:44:00.669Z,5.23
2019-04-21T02:46:35.787Z,5.00
2019-04-21T02:49:15.733Z,4.33
2019-04-21T02:51:32.047Z,4.57
2019-04-21T02:56:34.462Z,4.77
2019-04-21T02:59:27.802Z,5.50
2019-04-21T03:02:04.226Z,4.57
2019-04-21T03:05:07.391Z,5.40
2019-04-21T03:09:44.491Z,4.10
2019-04-21T03:12:17.997Z,4.20
2019-04-21T03:17:33.941Z,4.50
2019-04-21T03:19:51.954Z,4.37
2019-04-21T03:22:20.851Z,4.53
2019-04-21T03:27:29.093Z,5.07
2019-04-21T03:29:55.115Z,4.90
2019-04-21T03:32:51.337Z,5.07
2019-04-21T03:37:23.383Z,4.60
2019-04-21T03:39:53.623Z,4.20
2019-04-21T03:49:54.706Z,4.60
2019-04-21T03:55:38.617Z,4.63
2019-04-21T03:57:57.139Z,4.83
2019-04-21T04:00:21.937Z,4.70
2019-04-21T04:03:35.468Z,4.50
2019-04-21T04:08:52.491Z,4.27
2019-04-21T04:11:29.462Z,4.87
2019-04-21T04:13:53.401Z,4.60
2019-04-21T04:16:10.305Z,4.33
2019-04-21T04:18:46.756Z,4.67
2019-04-21T04:21:12.705Z,5.00
2019-04-21T04:23:45.327Z,5.67
2019-04-21T04:26:09.134Z,6.93
2019-04-21T04:31:22.298Z,4.80
2019-04-21T04:33:59.951Z,4.47
2019-04-21T04:36:15.603Z,4.73
2019-04-21T04:38:46.765Z,4.00
2019-04-21T04:41:30.498Z,4.43
2019-04-21T04:43:54.566Z,4.53
2019-04-21T04:48:57.330Z,4.33
2019-04-21T04:51:22.948Z,4.57
2019-04-21T04:53:46.890Z,4.37
2019-04-21T04:59:19.811Z,4.20
2019-04-21T05:01:36.740Z,4.33
2019-04-21T05:09:03.511Z,4.80
2019-04-21T05:11:44.544Z,3.80
2019-04-21T05:13:55.339Z,4.17
2019-04-21T05:16:36.289Z,4.53
2019-04-21T05:19:04.523Z,4.23
2019-04-21T05:21:30.159Z,4.73
2019-04-21T05:23:43.018Z,4.60
2019-04-21T05:26:08.279Z,4.40
2019-04-21T05:28:37.053Z,5.10
2019-04-21T05:31:25.683Z,5.13
2019-04-21T05:34:03.097Z,7.93
2019-04-21T05:37:01.069Z,4.43
2019-04-21T05:39:46.801Z,4.33
2019-04-21T05:42:06.137Z,4.20
2019-04-21T05:44:59.847Z,4.80
2019-04-21T05:47:26.553Z,5.00
2019-04-21T05:49:55.760Z,4.63
2019-04-21T05:52:27.830Z,5.80
2019-04-21T05:55:04.291Z,5.60
2019-04-21T05:57:29.071Z,5.00
2019-04-21T06:00:00.927Z,5.50
2019-04-21T06:02:51.986Z,4.70
2019-04-21T06:05:14.127Z,4.80
2019-04-21T06:07:34.922Z,4.97
2019-04-21T06:12:37.239Z,4.53
2019-04-21T06:15:26.549Z,5.10
2019-04-21T06:17:36.297Z,4.70
2019-04-21T06:20:08.582Z,4.87
2019-04-21T06:22:29.741Z,6.70
2019-04-21T06:25:41.022Z,6.10
2019-04-21T06:30:03.463Z,5.77
2019-04-21T06:32:50.919Z,5.80
2019-04-21T06:35:28.491Z,5.07
2019-04-21T06:37:50.614Z,5.43
2019-04-21T06:40:42.454Z,4.90
2019-04-21T06:43:08.176Z,5.47
2019-04-21T06:45:31.287Z,4.83
2019-04-21T06:48:01.130Z,5.00
2019-04-21T06:50:37.947Z,5.60
2019-04-21T06:53:16.511Z,5.23
2019-04-21T06:55:26.642Z,5.10
2019-04-21T06:57:58.010Z,5.40
2019-04-21T07:00:33.084Z,6.10
2019-04-21T07:03:08.371Z,5.27
2019-04-21T07:05:33.544Z,5.23
2019-04-21T07:08:17.767Z,5.50
2019-04-21T07:10:31.872Z,4.97
2019-04-21T07:13:01.336Z,5.50
2019-04-21T07:15:30.396Z,5.50
2019-04-21T07:18:04.455Z,5.10
2019-04-21T07:20:31.506Z,5.03
2019-04-21T07:23:01.767Z,5.40
2019-04-21T07:25:32.674Z,5.10
2019-04-21T07:28:17.697Z,5.77
2019-04-21T07:33:21.972Z,5.67
2019-04-21T07:35:34.605Z,5.10
2019-04-21T07:40:28.689Z,4.50
2019-04-21T07:42:57.584Z,5.37
2019-04-21T07:45:29.190Z,5.90
2019-04-21T07:48:06.452Z,5.30
2019-04-21T07:50:47.372Z,4.93
2019-04-21T07:53:30.335Z,5.50
2019-04-21T07:55:32.577Z,5.63
2019-04-21T07:58:22.558Z,5.03
2019-04-21T08:03:19.361Z,5.57
2019-04-21T08:05:53.678Z,5.60
2019-04-21T08:08:23.315Z,4.90
2019-04-21T08:10:53.632Z,5.30
2019-04-21T08:13:31.305Z,4.97
2019-04-21T08:15:52.922Z,4.97
2019-04-21T08:18:25.091Z,4.60
2019-04-21T08:20:50.751Z,4.97
2019-04-21T08:23:29.916Z,4.80
2019-04-21T08:26:01.086Z,4.50
2019-04-21T08:28:25.948Z,4.67
2019-04-21T08:30:50.254Z,4.57
2019-04-21T08:36:12.918Z,4.67
2019-04-21T08:38:20.407Z,4.57
2019-04-21T08:40:54.221Z,4.47
2019-04-21T08:43:33.812Z,4.20
2019-04-21T08:45:55.271Z,4.40
2019-04-21T08:48:25.387Z,4.57
2019-04-21T08:50:58.648Z,5.13
2019-04-21T08:53:27.400Z,4.77
2019-04-21T08:56:10.072Z,4.70
2019-04-21T08:58:52.958Z,4.67
2019-04-21T09:01:36.834Z,5.20
2019-04-21T09:04:15.845Z,5.07
2019-04-21T09:06:54.279Z,5.40
2019-04-21T09:09:11.818Z,5.20
2019-04-21T09:11:37.588Z,5.50
2019-04-21T09:14:07.825Z,5.47
2019-04-21T09:16:38.325Z,4.63
2019-04-21T09:19:04.395Z,4.93
2019-04-21T09:21:43.694Z,5.30
2019-04-21T09:24:11.447Z,4.73
2019-04-21T09:26:34.038Z,4.73
2019-04-21T09:29:04.325Z,4.30
2019-04-21T09:31:26.003Z,5.23
2019-04-21T09:33:56.973Z,4.70
2019-04-21T09:36:25.438Z,4.80
2019-04-21T09:39:00.082Z,5.37
2019-04-21T09:41:24.578Z,5.40
2019-04-21T09:43:55.715Z,5.40
2019-04-21T09:46:23.210Z,5.13
2019-04-21T09:48:58.247Z,5.60
2019-04-21T09:51:21.826Z,5.17
2019-04-21T09:53:57.246Z,5.00
2019-04-21T09:56:31.435Z,5.37
2019-04-21T09:58:57.367Z,4.83
2019-04-21T10:01:28.804Z,4.80
2019-04-21T10:03:56.624Z,4.80
2019-04-21T10:06:21.435Z,4.80
2019-04-21T10:08:57.491Z,4.70
2019-04-21T10:11:21.076Z,4.80
2019-04-21T10:13:50.781Z,5.13
2019-04-21T10:16:30.007Z,5.07
2019-04-21T10:18:58.831Z,4.70
2019-04-21T10:21:29.299Z,4.80
2019-04-21T10:23:57.908Z,5.90
2019-04-21T10:26:26.438Z,5.13
2019-04-21T10:28:58.587Z,5.37
2019-04-21T10:31:24.946Z,5.70
2019-04-21T10:33:54.460Z,5.77
2019-04-21T10:36:23.039Z,6.47
2019-04-21T10:38:53.178Z,5.30
2019-04-21T10:41:21.491Z,5.57
2019-04-21T10:43:51.263Z,5.50
2019-04-21T10:46:19.778Z,6.00
2019-04-21T10:48:48.584Z,6.00
2019-04-21T10:51:17.245Z,5.50
2019-04-21T10:53:50.826Z,5.17
2019-04-21T10:56:25.101Z,4.93
2019-04-21T10:58:52.098Z,5.20
2019-04-21T11:01:23.210Z,5.30
2019-04-21T11:04:32.295Z,5.67
2019-04-21T11:07:04.315Z,5.93
2019-04-21T11:09:26.754Z,5.70
2019-04-21T11:11:55.768Z,7.08
2019-04-21T11:14:25.366Z,6.87
2019-04-21T11:16:54.846Z,5.83
2019-04-21T11:19:24.285Z,5.77
2019-04-21T11:21:52.709Z,6.17
2019-04-21T11:24:21.014Z,6.57
2019-04-21T11:26:49.717Z,6.13
2019-04-21T11:29:19.105Z,5.50
2019-04-21T11:31:47.598Z,5.87
2019-04-21T11:34:15.777Z,5.43
2019-04-21T11:36:44.044Z,4.90
2019-04-21T11:39:30.765Z,5.85
2019-04-21T11:41:49.872Z,6.47
2019-04-21T11:44:18.409Z,5.83
2019-04-21T11:46:48.812Z,6.60
2019-04-21T11:49:17.977Z,5.27
2019-04-21T11:51:46.967Z,6.13
2019-04-21T11:54:15.449Z,5.13
2019-04-21T11:56:43.618Z,5.60
2019-04-21T11:59:12.150Z,5.50
2019-04-21T12:01:41.445Z,4.97
2019-04-21T12:04:09.829Z,5.33
2019-04-21T12:06:43.729Z,5.57
2019-04-21T12:09:09.892Z,5.50
2019-04-21T12:11:38.990Z,5.90
2019-04-21T12:14:08.021Z,5.67
2019-04-21T12:16:37.036Z,6.03
2019-04-21T12:19:07.185Z,6.37
2019-04-21T12:21:50.638Z,6.27
2019-04-21T12:24:06.947Z,6.53
2019-04-21T12:26:35.937Z,5.67
2019-04-21T12:29:05.899Z,6.40
2019-04-21T12:32:05.779Z,7.10
2019-04-21T12:34:34.323Z,6.57
2019-04-21T12:37:02.697Z,7.07
2019-04-21T12:39:30.961Z,6.47
2019-04-21T12:42:00.524Z,8.10
2019-04-21T12:44:29.542Z,6.47
2019-04-21T12:46:58.164Z,6.57
2019-04-21T12:49:27.583Z,5.83
2019-04-21T12:51:56.061Z,6.30
2019-04-21T12:54:25.905Z,6.50
2019-04-21T12:56:54.226Z,6.30
2019-04-21T12:59:22.333Z,7.27
2019-04-21T13:01:50.814Z,6.50
2019-04-21T13:04:19.820Z,6.80
2019-04-21T13:06:49.754Z,7.50
2019-04-21T13:09:20.325Z,8.33
2019-04-21T13:11:48.877Z,8.43
2019-04-21T13:14:17.865Z,8.00
2019-04-21T13:16:47.646Z,8.20
2019-04-21T13:19:17.440Z,9.20
2019-04-21T13:21:46.038Z,7.87
2019-04-21T13:24:14.162Z,6.97
2019-04-21T13:26:48.296Z,6.63
2019-04-21T13:29:12.339Z,6.93
2019-04-21T13:31:40.513Z,7.87
2019-04-21T13:34:08.641Z,7.77
2019-04-21T13:36:36.966Z,7.20
2019-04-21T13:42:11.179Z,7.70
2019-04-21T13:44:30.954Z,8.80
2019-04-21T13:47:00.681Z,7.40
2019-04-21T13:49:29.621Z,7.47
2019-04-21T13:51:58.077Z,6.47
2019-04-21T13:54:27.407Z,6.57
2019-04-21T13:56:56.552Z,6.37
2019-04-21T13:59:24.762Z,6.33
2019-04-21T14:01:54.040Z,7.03
2019-04-21T14:04:23.359Z,8.57
2019-04-21T14:06:52.200Z,7.50
2019-04-21T14:09:21.876Z,7.37
2019-04-21T14:11:53.538Z,8.10
2019-04-21T14:14:20.676Z,7.30
2019-04-21T14:16:49.904Z,8.17
2019-04-21T14:19:19.294Z,6.83
2019-04-21T14:21:49.843Z,7.77
2019-04-21T14:24:19.012Z,8.53
2019-04-21T14:26:47.928Z,8.63
2019-04-21T14:29:17.551Z,8.30
2019-04-21T14:31:46.459Z,8.27
2019-04-21T14:34:16.212Z,8.40
2019-04-21T14:36:44.614Z,7.80
2019-04-21T14:39:12.793Z,8.53
2019-04-21T14:41:42.116Z,7.40
2019-04-21T14:44:11.091Z,6.70
2019-04-21T14:46:53.386Z,7.43
2019-04-21T14:49:28.995Z,7.07
2019-04-21T14:52:03.060Z,6.93
2019-04-21T14:55:02.940Z,7.60
2019-04-21T14:57:31.558Z,7.63
2019-04-21T15:00:00.706Z,7.63
2019-04-21T15:02:29.927Z,7.77
2019-04-21T15:04:59.826Z,7.47
2019-04-21T15:07:28.351Z,7.77
2019-04-21T15:10:05.825Z,8.00
2019-04-21T15:12:27.841Z,7.17
2019-04-21T15:14:56.309Z,16.70
2019-04-21T15:17:26.050Z,10.80
2019-04-21T15:19:59.587Z,16.67
2019-04-21T15:22:24.486Z,18.77
2019-04-21T15:24:54.141Z,19.03
2019-04-21T15:27:23.134Z,11.37
2019-04-21T15:29:51.464Z,11.13
2019-04-21T15:32:19.573Z,11.77
2019-04-21T15:34:47.916Z,11.23
2019-04-21T15:37:16.100Z,10.50
2019-04-21T15:39:44.750Z,7.80
2019-04-21T15:42:14.474Z,8.37
2019-04-21T15:44:43.049Z,7.10
2019-04-21T15:47:12.162Z,8.83
2019-04-21T15:50:02.469Z,9.27
2019-04-21T15:52:27.725Z,9.07
2019-04-21T15:55:05.930Z,8.70
2019-04-21T15:57:44.611Z,9.57
2019-04-21T16:00:38.443Z,8.03
2019-04-21T16:03:06.842Z,8.47
2019-04-21T16:05:37.009Z,8.20
2019-04-21T16:08:05.918Z,8.30
2019-04-21T16:10:43.430Z,8.77
2019-04-21T16:13:05.745Z,8.23
2019-04-21T16:15:34.663Z,8.37
2019-04-21T16:18:03.539Z,7.77
2019-04-21T16:20:32.413Z,7.03
2019-04-21T16:23:00.663Z,6.43
2019-04-21T16:25:28.960Z,6.43
2019-04-21T16:27:57.289Z,6.57
2019-04-21T16:30:25.876Z,5.70
2019-04-21T16:32:54.492Z,4.83
2019-04-21T16:35:23.445Z,4.83
2019-04-21T16:37:54.236Z,5.10
2019-04-21T16:40:23.328Z,4.10
2019-04-21T16:42:52.168Z,4.77
2019-04-21T16:45:21.073Z,5.40
2019-04-21T16:47:52.142Z,4.57
2019-04-21T16:50:19.795Z,4.50
2019-04-21T16:53:14.277Z,4.60
2019-04-21T16:55:55.512Z,4.70
2019-04-21T16:58:45.573Z,4.10
2019-04-21T17:01:21.938Z,4.70
2019-04-21T17:03:50.510Z,4.63
2019-04-21T17:06:19.334Z,5.03
2019-04-21T17:08:47.907Z,5.70
2019-04-21T17:11:20.700Z,4.67
2019-04-21T17:13:47.323Z,4.37
2019-04-21T17:16:42.093Z,4.30
2019-04-21T17:18:57.488Z,4.53
2019-04-21T17:21:17.074Z,3.90
2019-04-21T17:23:46.447Z,4.20
2019-04-21T17:26:15.379Z,4.83
2019-04-21T17:28:44.956Z,4.17
2019-04-21T17:31:13.437Z,4.80
2019-04-21T17:33:41.711Z,4.60
2019-04-21T17:36:11.217Z,4.60
2019-04-21T17:38:39.885Z,4.63
2019-04-21T17:41:16.591Z,4.50
2019-04-21T17:43:39.567Z,5.30
2019-04-21T17:46:09.040Z,5.23
2019-04-21T17:48:38.689Z,5.10
2019-04-21T17:51:13.614Z,4.90
2019-04-21T17:53:55.727Z,5.57
2019-04-21T17:56:47.861Z,5.90
2019-04-21T17:59:23.596Z,6.10
2019-04-21T18:01:45.050Z,5.78
2019-04-21T18:04:15.347Z,5.10
2019-04-21T18:06:46.525Z,5.73
2019-04-21T18:09:22.320Z,5.80
2019-04-21T18:11:56.898Z,5.70
2019-04-21T18:14:02.124Z,6.00
2019-04-21T18:16:37.911Z,5.80
2019-04-21T18:19:02.546Z,6.95
2019-04-21T18:21:46.826Z,6.13
2019-04-21T18:24:15.414Z,5.17
2019-04-21T18:26:47.409Z,5.40
2019-04-21T18:29:11.746Z,5.47
2019-04-21T18:31:45.622Z,5.20
2019-04-21T18:34:56.265Z,5.70
2019-04-21T18:37:47.571Z,5.60
2019-04-21T18:40:21.069Z,5.57
2019-04-21T18:43:15.238Z,6.00
2019-04-21T18:48:20.565Z,5.57
2019-04-21T18:51:04.704Z,5.00
2019-04-21T18:54:05.071Z,5.30
2019-04-21T18:56:19.526Z,5.53
2019-04-21T18:58:48.530Z,5.17
2019-04-21T19:01:22.859Z,5.60
2019-04-21T19:03:50.721Z,5.23
2019-04-21T19:06:25.546Z,5.10
2019-04-21T19:09:26.724Z,4.73
2019-04-21T19:11:56.252Z,5.10
2019-04-21T19:17:04.526Z,4.97
2019-04-21T19:19:41.164Z,4.77
2019-04-21T19:22:00.159Z,4.63
2019-04-21T19:24:32.119Z,5.27
2019-04-21T19:26:58.809Z,5.30
2019-04-21T19:29:29.432Z,5.67
2019-04-21T19:31:58.679Z,4.67
2019-04-21T19:34:17.411Z,5.40
2019-04-21T19:36:46.724Z,5.40
2019-04-21T19:39:16.144Z,5.50
2019-04-21T19:41:56.151Z,6.13
2019-04-21T19:44:30.646Z,5.60
2019-04-21T19:47:01.290Z,5.60
2019-04-21T19:49:32.090Z,5.80
2019-04-21T19:51:52.346Z,6.20
2019-04-21T19:54:21.167Z,6.40
2019-04-21T19:56:42.641Z,6.03
2019-04-21T19:59:18.590Z,6.10
2019-04-21T20:01:44.151Z,6.33
2019-04-21T20:04:12.473Z,5.50
2019-04-21T20:06:52.219Z,5.70
2019-04-21T20:09:27.709Z,6.10
2019-04-21T20:12:02.870Z,6.63
2019-04-21T20:16:56.681Z,7.17
2019-04-21T20:19:16.186Z,7.50
2019-04-21T20:21:45.104Z,7.23
2019-04-21T20:24:20.176Z,6.80
2019-04-21T20:26:54.696Z,7.23
2019-04-21T20:29:40.304Z,6.90
2019-04-21T20:32:14.653Z,6.77
2019-04-21T20:34:40.008Z,7.43
2019-04-21T20:37:07.716Z,7.40
2019-04-21T20:39:26.620Z,7.63
2019-04-21T20:42:04.147Z,7.10
2019-04-21T20:44:37.447Z,8.13
2019-04-21T20:47:03.607Z,6.90
2019-04-21T20:49:34.603Z,6.20
2019-04-21T20:52:15.463Z,7.30
2019-04-21T20:54:40.772Z,6.60
2019-04-21T20:57:10.773Z,6.47
2019-04-21T20:59:34.426Z,6.67
2019-04-21T21:02:11.983Z,6.57
2019-04-21T21:04:32.698Z,6.63
2019-04-21T21:07:27.714Z,6.10
2019-04-21T21:09:42.950Z,6.40
2019-04-21T21:14:42.204Z,6.40
2019-04-21T21:17:26.738Z,6.10
2019-04-21T21:19:49.989Z,6.40
2019-04-21T21:22:09.846Z,5.50
2019-04-21T21:24:49.544Z,5.50
2019-04-21T21:27:14.080Z,5.63
2019-04-21T21:29:51.319Z,6.13
2019-04-21T21:32:29.814Z,6.40
2019-04-21T21:34:53.544Z,6.67
2019-04-21T21:37:26.894Z,6.43
2019-04-21T21:42:06.103Z,6.20
2019-04-21T21:44:35.820Z,6.23
2019-04-21T21:47:17.486Z,7.03
2019-04-21T21:49:48.130Z,7.13
2019-04-21T21:52:13.273Z,6.50
2019-04-21T21:54:35.974Z,6.77
2019-04-21T21:57:04.983Z,7.80
2019-04-21T21:59:36.518Z,6.90
2019-04-21T22:02:05.163Z,6.60
2019-04-21T22:04:36.043Z,7.13
2019-04-21T22:07:10.212Z,7.13
2019-04-21T22:09:34.547Z,7.10
2019-04-21T22:12:06.590Z,6.67
2019-04-21T22:14:40.889Z,6.80
2019-04-21T22:17:22.119Z,6.97
2019-04-21T22:20:00.425Z,7.33
2019-04-21T22:22:17.784Z,6.43
2019-04-21T22:24:50.742Z,6.93
2019-04-21T22:27:05.343Z,6.67
2019-04-21T22:29:38.201Z,7.17
2019-04-21T22:32:10.215Z,7.00
2019-04-21T22:34:46.439Z,7.17
2019-04-21T22:37:21.219Z,6.73
2019-04-21T22:39:51.649Z,7.23
2019-04-21T22:42:13.427Z,7.60
2019-04-21T22:44:36.351Z,6.87
2019-04-21T22:47:12.093Z,6.97
2019-04-21T22:49:35.161Z,7.10
2019-04-21T22:52:11.293Z,7.57
2019-04-21T22:54:38.026Z,7.00
2019-04-21T22:57:11.526Z,7.33
2019-04-21T22:59:34.195Z,7.00
2019-04-21T23:02:06.471Z,7.50
2019-04-21T23:04:41.785Z,8.05
2019-04-21T23:07:10.140Z,7.23
2019-04-21T23:09:34.998Z,8.93
2019-04-21T23:12:04.919Z,7.80
2019-04-21T23:14:45.367Z,8.73
2019-04-21T23:17:24.311Z,8.13
2019-04-21T23:19:46.222Z,8.10
2019-04-21T23:22:21.428Z,7.60
2019-04-21T23:24:54.434Z,7.67
2019-04-21T23:27:15.557Z,7.97
2019-04-21T23:30:11.683Z,7.77
2019-04-21T23:32:22.336Z,7.87
2019-04-21T23:34:38.902Z,7.90
2019-04-21T23:37:12.812Z,7.40
2019-04-21T23:39:37.561Z,7.40
2019-04-21T23:42:06.380Z,7.37
2019-04-21T23:44:41.502Z,7.73
2019-04-21T23:47:08.620Z,7.60
2019-04-21T23:49:46.219Z,7.93
2019-04-21T23:52:09.083Z,8.47
2019-04-21T23:54:35.566Z,7.83
2019-04-21T23:57:14.206Z,8.03
2019-04-21T23:59:42.191Z,7.30
